Time;durP1;ratioP1;P1;durP2;ratioP2;P2;SDS_P1;SDS_P2;PMS_P1;PMS_P2;Temp;Humidity;BMP_temperature;BMP_pressure;BME280_temperature;BME280_humidity;BME280_pressure;Samples;Min_cycle;Max_cycle;Signal;HPM_P1;HPM_P2
2023/01/24 00:02:09;;;;;;;16.23;11.43;;;2.10;99.90;;;;;;5080144;28;20420;-62
2023/01/24 00:04:37;;;;;;;14.70;10.35;;;2.20;99.90;;;;;;5081046;28;20446;-63
2023/01/24 00:07:04;;;;;;;15.00;10.93;;;2.20;99.90;;;;;;5078595;28;20412;-64
2023/01/24 00:09:30;;;;;;;16.15;11.48;;;2.10;99.90;;;;;;5080226;28;20484;-63
2023/01/24 00:11:57;;;;;;;16.20;11.88;;;2.10;99.90;;;;;;5078656;28;20423;-61
2023/01/24 00:14:24;;;;;;;15.75;11.40;;;2.10;99.90;;;;;;5078619;28;20404;-62
2023/01/24 00:16:50;;;;;;;15.95;11.32;;;2.10;99.90;;;;;;5079920;28;20410;-62
2023/01/24 00:19:17;;;;;;;16.88;11.75;;;2.10;99.90;;;;;;5077365;28;20416;-62
2023/01/24 00:21:45;;;;;;;16.02;11.38;;;2.00;99.90;;;;;;5075037;28;21170;-61
2023/01/24 00:24:12;;;;;;;13.02;9.93;;;2.00;99.90;;;;;;5074837;28;20415;-61
2023/01/24 00:26:38;;;;;;;14.85;10.20;;;2.00;99.90;;;;;;5076743;28;20908;-61
2023/01/24 00:29:05;;;;;;;15.13;11.15;;;2.00;99.90;;;;;;5075608;28;20471;-61
2023/01/24 00:31:32;;;;;;;16.83;11.50;;;2.10;99.90;;;;;;5080396;28;20477;-61
2023/01/24 00:33:59;;;;;;;15.25;10.73;;;2.10;99.90;;;;;;5077292;28;20422;-61
2023/01/24 00:36:26;;;;;;;14.35;10.95;;;2.10;99.90;;;;;;5081125;28;20503;-61
2023/01/24 00:38:55;;;;;;;13.48;9.52;;;2.10;99.90;;;;;;5078583;28;20424;-61
2023/01/24 00:41:22;;;;;;;14.65;10.50;;;2.10;99.90;;;;;;5082051;28;20485;-62
2023/01/24 00:43:48;;;;;;;13.55;9.32;;;2.10;99.90;;;;;;5078150;28;20421;-61
2023/01/24 00:46:15;;;;;;;13.60;9.90;;;2.10;95.80;;;;;;5075383;28;20424;-60
2023/01/24 00:48:42;;;;;;;15.33;10.47;;;2.10;98.00;;;;;;5081144;28;20498;-61
2023/01/24 00:51:08;;;;;;;14.38;10.02;;;2.20;92.70;;;;;;5075764;28;20769;-61
2023/01/24 00:53:35;;;;;;;12.70;9.10;;;2.20;95.70;;;;;;5080928;28;20539;-61
2023/01/24 00:56:03;;;;;;;13.48;9.55;;;2.10;91.40;;;;;;5079602;28;20756;-63
2023/01/24 00:58:30;;;;;;;13.07;9.82;;;2.10;93.30;;;;;;5080003;28;20465;-61
2023/01/24 01:01:00;;;;;;;12.82;9.38;;;2.10;97.10;;;;;;5075430;28;20412;-61
2023/01/24 01:03:27;;;;;;;11.70;8.65;;;2.20;92.50;;;;;;5080099;28;20917;-62
2023/01/24 01:05:58;;;;;;;13.05;8.98;;;2.10;91.50;;;;;;5078287;28;20417;-61
2023/01/24 01:08:25;;;;;;;12.27;9.47;;;2.30;93.30;;;;;;5080385;28;20952;-61
2023/01/24 01:10:52;;;;;;;11.88;8.73;;;2.40;86.50;;;;;;5075100;28;20433;-62
2023/01/24 01:13:20;;;;;;;11.43;8.57;;;2.40;75.60;;;;;;5080173;28;20821;-62
2023/01/24 01:15:47;;;;;;;13.05;9.48;;;2.30;72.40;;;;;;5074312;28;20478;-62
2023/01/24 01:18:14;;;;;;;13.43;8.70;;;2.20;85.10;;;;;;5079846;28;20437;-62
2023/01/24 01:20:40;;;;;;;11.43;8.43;;;2.20;92.00;;;;;;5077247;28;20892;-62
2023/01/24 01:23:07;;;;;;;13.73;9.43;;;2.30;90.30;;;;;;5079204;28;20894;-62
2023/01/24 01:25:34;;;;;;;13.55;9.00;;;2.30;88.60;;;;;;5075023;28;20970;-62
2023/01/24 01:28:00;;;;;;;13.27;9.45;;;2.30;91.30;;;;;;5078770;28;20424;-61
2023/01/24 01:30:28;;;;;;;12.55;9.20;;;2.20;91.80;;;;;;5078746;28;20432;-62
2023/01/24 01:32:55;;;;;;;12.68;9.10;;;2.20;89.70;;;;;;5079863;28;20414;-62
2023/01/24 01:35:22;;;;;;;11.82;8.60;;;2.20;89.80;;;;;;5075312;28;20424;-62
2023/01/24 01:37:48;;;;;;;13.38;8.88;;;2.10;91.80;;;;;;5080428;28;20458;-61
2023/01/24 01:40:15;;;;;;;12.68;8.90;;;2.10;90.50;;;;;;5077400;28;20419;-61
2023/01/24 01:42:50;;;;;;;13.32;8.77;;;2.10;91.50;;;;;;5078799;28;20422;-61
2023/01/24 01:45:35;;;;;;;12.25;8.55;;;2.10;79.50;;;;;;5068436;28;20416;-61
2023/01/24 01:48:05;;;;;;;12.55;8.80;;;2.10;84.90;;;;;;5078872;28;20414;-62
2023/01/24 01:50:38;;;;;;;11.85;8.77;;;2.20;81.00;;;;;;5077396;28;20429;-62
2023/01/24 01:53:06;;;;;;;12.05;8.45;;;2.20;77.00;;;;;;5074976;28;20421;-61
2023/01/24 01:55:36;;;;;;;11.82;8.52;;;2.10;81.00;;;;;;5076347;28;20500;-62
2023/01/24 01:58:03;;;;;;;11.45;8.35;;;2.20;79.80;;;;;;5078568;28;20423;-61
2023/01/24 02:00:31;;;;;;;11.57;8.43;;;2.20;66.10;;;;;;5078241;28;20425;-62
2023/01/24 02:05:43;;;;;;;9.40;7.63;;;2.10;67.90;;;;;;5074233;28;20405;-62
2023/01/24 02:08:12;;;;;;;9.17;7.40;;;2.10;68.20;;;;;;5079698;28;20415;-61
2023/01/24 02:13:21;;;;;;;9.17;7.10;;;2.10;56.40;;;;;;5079005;28;21022;-62
2023/01/24 02:16:03;;;;;;;9.93;7.65;;;2.20;55.10;;;;;;5073242;28;20905;-62
2023/01/24 02:18:30;;;;;;;10.88;7.65;;;2.10;49.80;;;;;;5078246;28;20411;-59
2023/01/24 02:20:57;;;;;;;9.45;6.93;;;2.10;47.20;;;;;;5078324;28;20785;-62
2023/01/24 02:23:30;;;;;;;9.23;7.25;;;2.10;48.80;;;;;;5078348;28;20420;-62
2023/01/24 02:26:08;;;;;;;9.70;7.97;;;2.20;46.40;;;;;;5073285;28;20419;-62
2023/01/24 02:28:36;;;;;;;10.88;8.02;;;2.20;43.20;;;;;;5072288;28;20417;-62
2023/01/24 02:31:04;;;;;;;9.48;7.40;;;2.10;40.20;;;;;;5076037;28;20435;-62
2023/01/24 02:33:32;;;;;;;11.50;7.50;;;2.10;50.80;;;;;;5083569;28;20411;-62
2023/01/24 02:36:15;;;;;;;10.45;7.70;;;2.10;48.00;;;;;;5077248;28;20428;-62
2023/01/24 02:38:45;;;;;;;10.63;7.55;;;2.10;52.20;;;;;;5082416;28;20420;-62
2023/01/24 02:41:14;;;;;;;9.88;7.63;;;2.10;44.20;;;;;;5079121;28;20467;-61
2023/01/24 02:43:46;;;;;;;10.68;7.40;;;2.10;41.00;;;;;;5084901;28;20413;-62
2023/01/24 02:46:13;;;;;;;10.10;7.30;;;2.20;37.00;;;;;;5077598;28;20420;-62
2023/01/24 02:48:40;;;;;;;10.50;7.38;;;2.10;36.20;;;;;;5085010;28;20409;-62
2023/01/24 02:53:51;;;;;;;10.10;7.57;;;2.00;45.10;;;;;;5077623;28;20949;-62
2023/01/24 02:59:11;;;;;;;9.47;7.43;;;2.00;44.50;;;;;;5047756;28;20927;-61
2023/01/24 03:01:38;;;;;;;11.13;7.95;;;2.00;42.60;;;;;;5077250;28;20448;-62
2023/01/24 03:04:05;;;;;;;11.45;7.50;;;2.10;42.00;;;;;;5080297;28;20420;-62
2023/01/24 03:06:32;;;;;;;9.27;6.97;;;2.00;45.70;;;;;;5077863;28;20947;-62
2023/01/24 03:08:59;;;;;;;10.65;7.60;;;2.00;43.20;;;;;;5082445;28;20420;-61
2023/01/24 03:11:27;;;;;;;10.73;7.45;;;2.00;41.80;;;;;;5080212;28;20432;-62
2023/01/24 03:35:53;;;;;;;10.15;7.30;;;1.90;57.30;;;;;;5080889;28;20487;-62
2023/01/24 03:41:06;;;;;;;10.90;7.82;;;1.90;55.20;;;;;;5077001;28;20776;-62
2023/01/24 03:43:34;;;;;;;10.80;7.85;;;1.90;60.70;;;;;;5076859;28;20496;-62
2023/01/24 03:46:00;;;;;;;9.75;7.60;;;1.90;63.30;;;;;;5078198;28;20410;-62
2023/01/24 03:48:34;;;;;;;11.50;8.57;;;1.90;67.20;;;;;;5083740;28;20932;-62
2023/01/24 03:53:45;;;;;;;9.85;7.30;;;1.90;65.40;;;;;;5078916;28;20477;-62
2023/01/24 03:56:12;;;;;;;11.00;8.00;;;1.90;62.80;;;;;;5078950;28;20414;-61
2023/01/24 03:58:40;;;;;;;10.77;7.80;;;1.90;57.20;;;;;;5081227;28;20411;-61
2023/01/24 04:01:06;;;;;;;9.90;7.10;;;1.90;60.60;;;;;;5080149;28;20414;-61
2023/01/24 04:03:33;;;;;;;10.73;7.80;;;1.90;57.90;;;;;;5078630;28;20899;-62
2023/01/24 04:06:00;;;;;;;10.43;7.55;;;1.90;56.10;;;;;;5074729;28;20432;-61
2023/01/24 04:08:26;;;;;;;10.83;7.80;;;2.00;50.60;;;;;;5080530;28;20477;-62
2023/01/24 04:10:55;;;;;;;10.35;7.68;;;2.10;43.70;;;;;;5079754;28;20837;-62
2023/01/24 04:13:22;;;;;;;10.35;7.47;;;2.00;45.20;;;;;;5079756;28;20443;-62
2023/01/24 04:15:50;;;;;;;10.77;8.10;;;2.00;49.90;;;;;;5075821;28;20414;-62
2023/01/24 04:18:17;;;;;;;10.60;8.05;;;1.90;56.10;;;;;;5079218;28;20821;-62
2023/01/24 04:20:44;;;;;;;11.27;7.80;;;1.90;59.70;;;;;;5077947;28;20822;-61
2023/01/24 04:23:11;;;;;;;10.15;7.63;;;1.90;54.30;;;;;;5077079;28;20981;-61
2023/01/24 04:25:38;;;;;;;11.93;8.57;;;1.90;55.50;;;;;;5073947;28;20620;-61
2023/01/24 04:28:05;;;;;;;10.32;8.05;;;1.90;59.40;;;;;;5080552;28;20438;-61
2023/01/24 04:30:32;;;;;;;9.90;7.65;;;1.90;60.80;;;;;;5076710;28;20419;-61
2023/01/24 04:33:00;;;;;;;12.97;9.07;;;1.90;60.20;;;;;;5082829;28;21104;-61
2023/01/24 04:35:28;;;;;;;11.60;8.82;;;1.80;55.00;;;;;;5073932;28;20838;-62
2023/01/24 04:37:58;;;;;;;12.13;8.82;;;1.80;58.60;;;;;;5082197;28;20409;-62
2023/01/24 04:40:25;;;;;;;12.82;9.52;;;1.80;61.30;;;;;;5079710;28;20973;-62
2023/01/24 04:42:52;;;;;;;13.13;9.32;;;1.90;60.70;;;;;;5079771;28;20416;-62
2023/01/24 04:45:18;;;;;;;12.70;9.00;;;1.80;54.80;;;;;;5076067;28;20417;-62
2023/01/24 04:47:45;;;;;;;12.98;9.50;;;1.80;62.80;;;;;;5081674;28;20880;-61
2023/01/24 04:50:13;;;;;;;12.88;9.35;;;1.80;69.50;;;;;;5078183;28;21018;-62
2023/01/24 04:52:40;;;;;;;13.33;9.30;;;1.90;74.40;;;;;;5080475;28;20530;-62
2023/01/24 04:55:07;;;;;;;12.60;9.20;;;1.90;66.60;;;;;;5077146;28;20422;-62
2023/01/24 04:57:34;;;;;;;13.85;10.00;;;1.80;71.40;;;;;;5074934;28;20419;-62
2023/01/24 05:00:00;;;;;;;13.13;9.35;;;1.80;64.10;;;;;;5081119;28;20410;-62
2023/01/24 05:02:27;;;;;;;12.35;9.02;;;1.80;64.80;;;;;;5077581;28;20838;-61
2023/01/24 05:04:54;;;;;;;13.45;9.45;;;1.80;61.70;;;;;;5073592;28;20821;-61
2023/01/24 05:07:22;;;;;;;13.57;9.60;;;1.80;60.20;;;;;;5071732;28;20419;-62
2023/01/24 05:09:49;;;;;;;13.80;9.60;;;1.80;67.20;;;;;;5080487;28;20411;-62
2023/01/24 05:12:16;;;;;;;16.20;10.68;;;1.80;66.40;;;;;;5077420;28;20425;-61
2023/01/24 05:14:42;;;;;;;13.15;9.98;;;1.90;65.70;;;;;;5078344;28;20419;-61
2023/01/24 05:17:09;;;;;;;14.05;9.90;;;1.80;67.40;;;;;;5070186;28;20423;-62
2023/01/24 05:19:35;;;;;;;13.85;10.05;;;1.80;65.40;;;;;;5078252;28;20416;-62
2023/01/24 05:22:02;;;;;;;13.93;10.00;;;1.80;57.80;;;;;;5078746;28;20461;-62
2023/01/24 05:24:30;;;;;;;14.02;10.25;;;1.90;63.90;;;;;;5079689;28;20411;-62
2023/01/24 05:26:57;;;;;;;14.00;10.40;;;1.90;63.70;;;;;;5077506;28;20469;-61
2023/01/24 05:29:24;;;;;;;14.07;10.40;;;1.80;56.70;;;;;;5080030;28;20402;-61
2023/01/24 05:31:50;;;;;;;14.20;10.35;;;1.80;62.20;;;;;;5077743;28;20775;-62
2023/01/24 05:34:17;;;;;;;14.70;10.80;;;1.70;68.70;;;;;;5081180;28;20482;-62
2023/01/24 05:36:44;;;;;;;15.00;10.05;;;1.70;71.10;;;;;;5076713;28;20427;-62
2023/01/24 05:39:10;;;;;;;14.43;10.57;;;1.70;68.80;;;;;;5079081;28;20411;-62
2023/01/24 05:41:38;;;;;;;13.63;9.95;;;1.90;70.60;;;;;;5076656;28;20416;-62
2023/01/24 05:44:05;;;;;;;14.98;10.80;;;2.00;60.20;;;;;;5081078;28;20414;-62
2023/01/24 05:46:32;;;;;;;15.63;10.57;;;1.80;57.10;;;;;;5074494;28;20411;-62
2023/01/24 05:48:58;;;;;;;13.82;10.35;;;1.80;57.30;;;;;;5076536;28;20426;-61
2023/01/24 05:51:25;;;;;;;14.55;11.00;;;1.80;64.80;;;;;;5078013;28;20425;-62
2023/01/24 05:53:52;;;;;;;14.50;10.60;;;1.80;66.90;;;;;;5080295;28;20424;-61
2023/01/24 05:56:20;;;;;;;14.70;10.80;;;1.80;65.60;;;;;;5077524;28;20413;-61
2023/01/24 05:58:49;;;;;;;14.13;10.75;;;1.80;71.90;;;;;;5077596;28;20413;-61
2023/01/24 06:01:17;;;;;;;15.88;11.48;;;1.80;67.60;;;;;;5080587;28;20414;-62
2023/01/24 06:03:45;;;;;;;15.80;11.77;;;1.70;76.80;;;;;;5081187;28;20418;-62
2023/01/24 06:06:14;;;;;;;15.93;11.52;;;1.70;82.80;;;;;;5079569;28;20414;-61
2023/01/24 06:08:41;;;;;;;16.63;11.82;;;1.70;80.50;;;;;;5080738;28;20414;-60
2023/01/24 06:11:14;;;;;;;16.48;11.93;;;1.70;79.10;;;;;;5080666;28;20960;-62
2023/01/24 06:13:41;;;;;;;17.13;11.65;;;1.80;70.70;;;;;;5076272;28;20417;-60
2023/01/24 06:16:12;;;;;;;15.65;11.73;;;1.70;74.20;;;;;;5081478;28;20479;-62
2023/01/24 06:18:40;;;;;;;16.90;11.75;;;1.80;78.50;;;;;;5081732;28;20467;-61
2023/01/24 06:21:09;;;;;;;15.95;11.43;;;1.70;81.90;;;;;;5081934;28;20493;-62
2023/01/24 06:23:37;;;;;;;15.10;11.18;;;1.80;76.00;;;;;;5078805;28;20755;-62
2023/01/24 06:26:04;;;;;;;14.80;11.18;;;1.90;72.30;;;;;;5075769;28;20472;-61
2023/01/24 06:28:31;;;;;;;15.68;11.23;;;1.90;72.10;;;;;;5081358;28;20452;-62
2023/01/24 06:31:04;;;;;;;16.70;11.88;;;1.80;74.40;;;;;;5080830;28;20822;-62
2023/01/24 06:33:52;;;;;;;16.40;11.30;;;1.80;71.20;;;;;;5085256;28;20410;-65
2023/01/24 06:36:31;;;;;;;16.90;11.88;;;1.70;82.60;;;;;;5072793;28;20424;-62
2023/01/24 06:38:58;;;;;;;16.43;11.43;;;1.70;80.40;;;;;;5081844;28;20415;-62
2023/01/24 06:41:25;;;;;;;15.77;11.27;;;1.70;77.00;;;;;;5081926;28;20784;-62
2023/01/24 06:43:52;;;;;;;15.17;11.23;;;1.90;74.50;;;;;;5082311;28;20415;-62
2023/01/24 06:46:19;;;;;;;15.70;11.50;;;1.80;59.60;;;;;;5075509;28;20424;-64
2023/01/24 06:48:47;;;;;;;14.73;11.15;;;1.90;52.40;;;;;;5080648;28;20544;-61
2023/01/24 06:51:14;;;;;;;14.77;11.02;;;1.70;57.40;;;;;;5084423;28;20888;-62
2023/01/24 06:53:41;;;;;;;15.52;10.57;;;1.80;61.60;;;;;;5080119;28;20489;-63
2023/01/24 06:56:09;;;;;;;15.37;11.20;;;1.80;62.10;;;;;;5078909;28;20532;-61
2023/01/24 06:58:36;;;;;;;15.43;11.35;;;1.70;64.00;;;;;;5081613;28;20475;-63
2023/01/24 07:01:03;;;;;;;15.80;11.90;;;1.70;70.00;;;;;;5080925;28;20467;-62
2023/01/24 07:03:30;;;;;;;17.17;11.65;;;1.70;78.00;;;;;;5079027;28;21130;-62
2023/01/24 07:05:58;;;;;;;16.45;11.82;;;1.60;80.40;;;;;;5076816;28;20833;-62
2023/01/24 07:08:25;;;;;;;14.00;10.80;;;1.70;80.20;;;;;;5080078;28;20419;-61
2023/01/24 07:10:51;;;;;;;14.13;10.15;;;1.70;73.60;;;;;;5080827;28;20898;-62
2023/01/24 07:13:18;;;;;;;14.60;10.57;;;1.80;64.80;;;;;;5080815;28;20483;-62
2023/01/24 07:15:45;;;;;;;14.95;10.45;;;1.70;62.20;;;;;;5076377;28;20415;-62
2023/01/24 07:18:14;;;;;;;13.45;9.85;;;1.80;68.90;;;;;;5074846;28;20414;-62
2023/01/24 07:20:41;;;;;;;15.02;11.02;;;1.70;65.30;;;;;;5083893;28;20467;-60
2023/01/24 07:23:20;;;;;;;14.53;10.73;;;1.80;67.10;;;;;;5078505;28;20419;-62
2023/01/24 07:25:48;;;;;;;13.88;10.18;;;1.70;68.90;;;;;;5076637;28;20434;-62
2023/01/24 07:28:15;;;;;;;14.23;10.43;;;1.70;69.20;;;;;;5079372;28;20556;-62
2023/01/24 07:30:44;;;;;;;14.52;9.90;;;1.80;72.40;;;;;;5075553;28;20415;-62
2023/01/24 07:33:11;;;;;;;12.60;8.90;;;1.80;57.30;;;;;;5075667;28;20480;-62
2023/01/24 07:35:38;;;;;;;12.38;9.32;;;1.90;61.10;;;;;;5076047;28;20526;-61
2023/01/24 07:38:05;;;;;;;12.73;9.52;;;1.90;51.10;;;;;;5079828;28;20420;-62
2023/01/24 07:40:33;;;;;;;12.88;9.63;;;1.90;53.10;;;;;;5081443;28;20416;-62
2023/01/24 07:43:00;;;;;;;13.10;9.80;;;1.80;55.80;;;;;;5078626;28;20410;-61
2023/01/24 07:45:27;;;;;;;13.25;9.73;;;1.80;55.70;;;;;;5079667;28;20554;-61
2023/01/24 07:47:56;;;;;;;12.20;8.52;;;2.00;51.40;;;;;;5067126;28;20416;-63
2023/01/24 07:50:23;;;;;;;11.60;9.13;;;2.00;34.00;;;;;;5084518;28;20761;-61
2023/01/24 07:52:51;;;;;;;12.07;9.23;;;1.80;36.90;;;;;;5069869;28;20434;-61
2023/01/24 07:55:18;;;;;;;11.50;9.17;;;1.70;56.20;;;;;;5081806;28;20445;-61
2023/01/24 07:57:47;;;;;;;11.93;8.88;;;1.70;62.30;;;;;;5076006;28;20513;-66
2023/01/24 08:00:15;;;;;;;11.48;9.05;;;1.70;68.30;;;;;;5072896;28;20892;-61
2023/01/24 08:02:42;;;;;;;11.15;8.30;;;1.80;70.80;;;;;;5077303;28;20412;-63
2023/01/24 08:05:09;;;;;;;11.05;8.00;;;1.70;53.60;;;;;;5070550;28;20418;-59
2023/01/24 08:07:36;;;;;;;10.57;7.80;;;1.70;52.20;;;;;;5070200;28;20426;-60
2023/01/24 08:10:04;;;;;;;10.95;7.90;;;1.70;56.30;;;;;;5075001;28;20423;-62
2023/01/24 08:12:30;;;;;;;10.27;8.20;;;1.70;56.90;;;;;;5081611;28;20430;-64
2023/01/24 08:14:59;;;;;;;13.38;8.43;;;1.70;59.60;;;;;;5077294;28;20427;-62
2023/01/24 08:17:25;;;;;;;10.85;7.50;;;1.90;78.90;;;;;;5079247;28;20424;-62
2023/01/24 08:19:52;;;;;;;10.32;7.90;;;1.90;48.10;;;;;;5079364;28;20418;-66
2023/01/24 08:22:19;;;;;;;10.02;7.70;;;1.90;45.30;;;;;;5076624;28;20420;-61
2023/01/24 08:24:45;;;;;;;9.23;7.50;;;1.90;45.50;;;;;;5081331;28;20416;-62
2023/01/24 08:27:12;;;;;;;8.88;6.35;;;1.80;51.00;;;;;;5077677;28;20425;-63
2023/01/24 08:29:39;;;;;;;9.20;7.30;;;1.80;41.60;;;;;;5070925;28;20444;-62
2023/01/24 08:32:07;;;;;;;11.52;8.65;;;1.70;45.10;;;;;;5068596;28;20493;-63
2023/01/24 08:34:33;;;;;;;10.32;8.15;;;1.80;56.00;;;;;;5075719;28;21132;-62
2023/01/24 08:37:00;;;;;;;10.30;8.00;;;1.90;43.10;;;;;;5077306;28;20446;-62
2023/01/24 08:39:27;;;;;;;9.82;7.53;;;1.80;43.20;;;;;;5080542;28;20406;-62
2023/01/24 08:41:53;;;;;;;11.77;8.32;;;1.90;49.10;;;;;;5080633;28;20411;-62
2023/01/24 08:44:20;;;;;;;9.75;7.90;;;1.90;26.00;;;;;;5075291;28;20783;-63
2023/01/24 08:46:47;;;;;;;12.02;8.30;;;1.90;40.00;;;;;;5078922;28;20426;-64
2023/01/24 08:49:15;;;;;;;11.38;8.77;;;2.00;41.80;;;;;;5080819;28;20406;-65
2023/01/24 08:51:42;;;;;;;10.55;8.05;;;2.10;36.10;;;;;;5078228;28;20417;-65
2023/01/24 08:54:08;;;;;;;9.57;7.70;;;2.00;44.10;;;;;;5073554;28;21085;-62
2023/01/24 08:56:36;;;;;;;11.15;8.55;;;2.10;33.00;;;;;;5074897;28;20422;-62
2023/01/24 08:59:02;;;;;;;11.00;7.90;;;2.10;19.40;;;;;;5072392;28;20410;-62
2023/01/24 09:01:29;;;;;;;9.93;8.13;;;2.10;32.70;;;;;;5075308;28;20427;-62
2023/01/24 09:03:56;;;;;;;10.55;8.10;;;2.20;29.00;;;;;;5078962;28;20497;-60
2023/01/24 09:06:25;;;;;;;10.90;8.27;;;2.20;9.50;;;;;;5072592;28;20427;-59
2023/01/24 09:08:54;;;;;;;10.10;7.90;;;2.30;21.70;;;;;;5079999;28;21205;-61
2023/01/24 09:11:21;;;;;;;11.17;8.13;;;2.40;15.50;;;;;;5079339;28;20506;-60
2023/01/24 09:13:48;;;;;;;11.43;8.55;;;2.30;18.70;;;;;;5075371;28;20434;-61
2023/01/24 09:16:15;;;;;;;10.98;7.75;;;2.40;28.90;;;;;;5072621;28;20438;-65
2023/01/24 09:18:41;;;;;;;10.40;8.35;;;2.50;11.00;;;;;;5081742;28;20413;-59
2023/01/24 09:21:08;;;;;;;10.93;8.30;;;2.40;10.30;;;;;;5077980;28;20423;-63
2023/01/24 09:23:36;;;;;;;11.23;8.65;;;2.30;12.30;;;;;;5074956;28;20436;-61
2023/01/24 09:26:03;;;;;;;12.45;9.02;;;2.40;19.10;;;;;;5077672;28;20490;-62
2023/01/24 09:28:30;;;;;;;11.55;8.68;;;2.50;19.70;;;;;;5073228;28;20417;-65
2023/01/24 09:30:57;;;;;;;9.95;8.10;;;2.40;12.30;;;;;;5073239;28;20421;-61
2023/01/24 09:33:24;;;;;;;11.93;8.43;;;2.20;14.00;;;;;;5077036;28;20553;-64
2023/01/24 09:35:56;;;;;;;11.05;8.45;;;2.10;12.00;;;;;;5079392;28;20833;-63
2023/01/24 09:38:24;;;;;;;11.00;8.40;;;2.10;28.60;;;;;;5080540;28;20494;-62
2023/01/24 09:41:04;;;;;;;11.32;8.45;;;2.10;28.30;;;;;;5068414;28;20419;-63
2023/01/24 09:43:43;;;;;;;10.57;8.25;;;2.10;25.90;;;;;;5071710;28;20411;-63
2023/01/24 09:46:23;;;;;;;10.43;7.80;;;2.00;23.60;;;;;;5069746;28;20500;-63
2023/01/24 09:48:55;;;;;;;11.05;8.25;;;1.90;24.20;;;;;;5080168;28;20421;-64
2023/01/24 09:51:26;;;;;;;9.38;7.30;;;2.00;26.90;;;;;;5075181;28;20454;-63
2023/01/24 09:53:56;;;;;;;10.77;8.13;;;2.00;21.50;;;;;;5070675;28;20936;-62
2023/01/24 09:56:30;;;;;;;11.67;8.13;;;1.90;26.40;;;;;;5077571;28;20515;-62
2023/01/24 09:59:20;;;;;;;11.65;8.52;;;2.00;29.50;;;;;;5076094;28;20949;-63
2023/01/24 10:01:48;;;;;;;11.10;8.80;;;2.00;29.90;;;;;;5075759;28;20446;-62
2023/01/24 10:04:19;;;;;;;11.57;8.75;;;2.00;28.80;;;;;;5074307;28;20418;-62
2023/01/24 10:07:02;;;;;;;12.27;8.87;;;2.00;20.70;;;;;;5077014;28;20426;-64
2023/01/24 10:09:39;;;;;;;11.77;9.70;;;2.20;26.30;;;;;;5073194;28;20606;-63
2023/01/24 10:12:21;;;;;;;11.82;9.55;;;2.30;14.10;;;;;;5076230;28;20415;-64
2023/01/24 10:15:01;;;;;;;11.82;9.65;;;2.40;19.10;;;;;;5069559;28;20507;-63
2023/01/24 10:17:57;;;;;;;12.25;9.38;;;2.30;10.90;;;;;;5073378;28;20415;-63
2023/01/24 10:20:52;;;;;;;11.38;9.10;;;2.50;4.70;;;;;;5063301;28;20776;-63
2023/01/24 10:23:24;;;;;;;13.27;9.85;;;2.70;1.00;;;;;;5069046;28;20417;-63
2023/01/24 10:25:56;;;;;;;12.00;9.15;;;2.60;1.00;;;;;;5077115;28;20416;-65
2023/01/24 10:28:28;;;;;;;11.65;9.77;;;2.60;1.00;;;;;;5072567;28;20420;-65
2023/01/24 10:31:08;;;;;;;14.10;10.63;;;2.40;1.00;;;;;;5068831;28;21096;-66
2023/01/24 10:33:40;;;;;;;12.13;9.88;;;2.40;8.30;;;;;;5074263;28;20432;-63
2023/01/24 10:36:12;;;;;;;13.77;10.48;;;2.50;7.40;;;;;;5072392;28;20415;-64
2023/01/24 10:38:39;;;;;;;13.07;10.68;;;2.50;16.40;;;;;;5072987;28;20415;-63
2023/01/24 10:41:17;;;;;;;14.65;10.52;;;2.40;8.60;;;;;;5078769;28;20407;-63
2023/01/24 10:43:49;;;;;;;12.88;10.23;;;2.50;9.50;;;;;;5072026;28;20472;-63
2023/01/24 10:46:33;;;;;;;13.07;10.43;;;2.30;5.90;;;;;;5075618;28;20423;-64
2023/01/24 10:49:02;;;;;;;12.47;9.70;;;2.50;13.60;;;;;;5077360;28;20414;-63
2023/01/24 10:51:29;;;;;;;12.85;10.05;;;2.40;1.00;;;;;;5080122;28;20892;-64
2023/01/24 10:54:01;;;;;;;13.68;10.57;;;2.40;1.20;;;;;;5079474;28;20420;-64
2023/01/24 10:56:28;;;;;;;13.57;10.77;;;2.30;7.80;;;;;;5076829;28;20471;-67
2023/01/24 10:59:04;;;;;;;17.65;11.40;;;2.30;15.70;;;;;;5083552;28;20412;-66
2023/01/24 11:01:37;;;;;;;13.25;10.60;;;2.30;20.70;;;;;;5076917;28;20902;-65
2023/01/24 11:04:15;;;;;;;15.57;10.30;;;2.40;17.30;;;;;;5080074;28;20413;-64
2023/01/24 11:06:47;;;;;;;13.80;11.53;;;2.30;1.80;;;;;;5082866;28;20926;-63
2023/01/24 11:09:16;;;;;;;16.10;11.48;;;2.30;6.70;;;;;;5079408;28;20407;-63
2023/01/24 11:11:45;;;;;;;12.07;8.63;;;2.30;4.80;;;;;;5083714;28;20419;-64
2023/01/24 11:14:17;;;;;;;14.50;11.85;;;2.20;5.20;;;;;;5083125;28;20433;-64
2023/01/24 11:16:45;;;;;;;14.38;11.50;;;2.20;22.90;;;;;;5079715;28;20411;-62
2023/01/24 11:19:28;;;;;;;13.55;11.30;;;2.20;19.80;;;;;;5078362;28;20487;-63
2023/01/24 11:21:57;;;;;;;14.07;11.17;;;2.30;11.50;;;;;;5076557;28;20485;-63
2023/01/24 11:24:25;;;;;;;14.45;11.40;;;2.40;12.50;;;;;;5084125;28;20405;-63
2023/01/24 11:26:55;;;;;;;15.35;11.48;;;2.30;4.00;;;;;;5079664;28;20431;-63
2023/01/24 11:29:25;;;;;;;15.13;11.82;;;2.40;18.30;;;;;;5083836;28;20410;-63
2023/01/24 11:31:53;;;;;;;15.13;11.65;;;2.40;8.50;;;;;;5079433;28;20415;-62
2023/01/24 11:34:43;;;;;;;15.93;11.83;;;2.50;10.20;;;;;;5083557;28;20431;-63
2023/01/24 11:37:33;;;;;;;14.68;11.68;;;2.60;13.80;;;;;;5080046;28;20886;-63
2023/01/24 11:40:13;;;;;;;13.20;10.20;;;2.70;4.30;;;;;;5079452;28;20812;-63
2023/01/24 11:42:48;;;;;;;14.63;11.32;;;2.40;1.00;;;;;;5075950;28;20413;-62
2023/01/24 11:45:33;;;;;;;16.55;11.82;;;2.30;5.50;;;;;;5082044;28;20790;-62
2023/01/24 11:48:08;;;;;;;13.68;11.07;;;2.30;11.90;;;;;;5071339;28;20516;-62
2023/01/24 11:50:46;;;;;;;14.52;11.40;;;2.30;1.00;;;;;;5083655;28;20489;-63
2023/01/24 11:53:33;;;;;;;14.80;11.93;;;2.40;1.00;;;;;;5075463;28;20432;-63
2023/01/24 11:56:09;;;;;;;13.90;11.65;;;2.40;1.00;;;;;;5080559;28;20406;-61
2023/01/24 11:58:52;;;;;;;14.50;11.75;;;2.60;1.00;;;;;;5078872;28;20414;-62
2023/01/24 12:01:29;;;;;;;14.57;10.95;;;2.50;1.00;;;;;;5078479;28;20473;-63
2023/01/24 12:04:13;;;;;;;14.25;11.05;;;2.40;1.00;;;;;;5076395;28;20759;-63
2023/01/24 12:06:45;;;;;;;16.10;11.57;;;2.30;1.00;;;;;;5075184;28;20818;-63
2023/01/24 12:09:20;;;;;;;14.52;11.57;;;2.30;3.60;;;;;;5083193;28;20406;-63
2023/01/24 12:11:56;;;;;;;13.10;11.32;;;2.40;5.20;;;;;;5078593;28;20851;-63
2023/01/24 12:14:57;;;;;;;13.98;11.27;;;2.40;1.00;;;;;;5077297;28;20427;-62
2023/01/24 12:17:38;;;;;;;15.57;11.40;;;2.50;1.00;;;;;;5077968;28;20463;-63
2023/01/24 12:20:33;;;;;;;13.63;11.63;;;2.60;1.00;;;;;;5083691;28;20866;-62
2023/01/24 12:23:10;;;;;;;13.30;11.35;;;2.80;1.00;;;;;;5078129;28;20427;-62
2023/01/24 12:25:39;;;;;;;12.57;11.10;;;2.90;1.00;;;;;;5082539;28;20439;-62
2023/01/24 12:28:10;;;;;;;13.57;10.63;;;3.10;1.00;;;;;;5080276;28;20451;-63
2023/01/24 12:30:42;;;;;;;13.18;10.63;;;3.10;1.00;;;;;;5080277;28;20407;-63
2023/01/24 12:33:18;;;;;;;12.82;10.75;;;2.90;1.00;;;;;;5076263;28;20419;-63
2023/01/24 12:35:48;;;;;;;13.63;10.57;;;3.00;1.00;;;;;;5066511;28;20420;-63
2023/01/24 12:38:21;;;;;;;14.20;11.18;;;3.00;1.00;;;;;;5082138;28;20414;-63
2023/01/24 12:40:53;;;;;;;13.93;11.30;;;2.80;1.00;;;;;;5082305;28;20418;-63
2023/01/24 12:43:25;;;;;;;13.03;11.30;;;2.60;1.00;;;;;;5082713;28;20420;-62
2023/01/24 12:46:02;;;;;;;14.60;10.60;;;2.50;1.00;;;;;;5076976;28;20418;-61
2023/01/24 12:48:38;;;;;;;14.10;11.18;;;2.40;1.00;;;;;;5078123;28;20419;-62
2023/01/24 12:51:14;;;;;;;14.52;10.95;;;2.50;1.00;;;;;;5074704;28;20414;-64
2023/01/24 12:53:49;;;;;;;14.13;11.50;;;2.50;1.00;;;;;;5081974;28;20471;-61
2023/01/24 12:56:21;;;;;;;14.20;11.00;;;2.50;1.70;;;;;;5077588;28;20510;-62
2023/01/24 12:58:52;;;;;;;14.43;11.35;;;2.50;1.00;;;;;;5074780;28;20455;-62
2023/01/24 13:01:44;;;;;;;13.52;11.20;;;2.60;3.60;;;;;;5078124;28;20454;-62
2023/01/24 13:04:20;;;;;;;12.85;10.68;;;2.70;8.90;;;;;;5077919;28;20474;-62
2023/01/24 13:06:58;;;;;;;12.85;10.48;;;2.90;1.00;;;;;;5066743;28;20431;-61
2023/01/24 13:09:29;;;;;;;13.43;10.88;;;3.00;1.00;;;;;;5077202;28;20794;-62
2023/01/24 13:11:58;;;;;;;13.38;10.75;;;2.80;1.00;;;;;;5075025;28;20414;-61
2023/01/24 13:14:31;;;;;;;15.00;10.55;;;2.60;1.00;;;;;;5077707;28;20427;-62
2023/01/24 13:17:21;;;;;;;12.68;10.63;;;3.00;1.90;;;;;;5060499;28;20794;-64
2023/01/24 13:19:58;;;;;;;12.35;10.35;;;3.10;1.00;;;;;;5076145;28;20417;-62
2023/01/24 13:22:39;;;;;;;13.45;10.25;;;3.20;1.00;;;;;;5073705;28;20412;-63
2023/01/24 13:25:30;;;;;;;13.93;10.38;;;3.20;1.00;;;;;;5073257;28;20469;-63
2023/01/24 13:28:04;;;;;;;11.55;9.50;;;3.00;1.00;;;;;;5074172;28;20756;-63
2023/01/24 13:30:38;;;;;;;11.30;9.52;;;3.00;1.00;;;;;;5074096;28;20418;-63
2023/01/24 13:33:05;;;;;;;10.95;9.25;;;3.10;1.00;;;;;;5081587;28;20467;-63
2023/01/24 13:35:34;;;;;;;11.43;9.63;;;3.30;1.00;;;;;;5077125;28;20429;-63
2023/01/24 13:38:05;;;;;;;12.10;9.80;;;3.10;1.00;;;;;;5076211;28;20415;-62
2023/01/24 13:40:35;;;;;;;11.82;9.95;;;2.90;1.00;;;;;;5074147;28;20788;-62